sensor_id;sensor_type;location;lat;lon;timestamp;P1;durP1;ratioP1;P2;durP2;ratioP2
44985;SDS011;30721;49.380;7.736;2022-08-18T00:01:48;5.45;;;5.00;;
44985;SDS011;30721;49.380;7.736;2022-08-18T00:04:15;5.38;;;4.88;;
44985;SDS011;30721;49.380;7.736;2022-08-18T00:06:41;5.72;;;5.22;;
44985;SDS011;30721;49.380;7.736;2022-08-18T00:09:07;5.10;;;4.70;;
44985;SDS011;30721;49.380;7.736;2022-08-18T00:11:38;5.80;;;5.38;;
44985;SDS011;30721;49.380;7.736;2022-08-18T00:14:06;5.32;;;4.93;;
44985;SDS011;30721;49.380;7.736;2022-08-18T00:16:31;6.10;;;5.50;;
44985;SDS011;30721;49.380;7.736;2022-08-18T00:18:57;5.28;;;4.78;;
44985;SDS011;30721;49.380;7.736;2022-08-18T00:21:23;4.85;;;4.45;;
44985;SDS011;30721;49.380;7.736;2022-08-18T00:23:48;5.57;;;5.07;;
44985;SDS011;30721;49.380;7.736;2022-08-18T00:26:13;5.40;;;4.57;;
44985;SDS011;30721;49.380;7.736;2022-08-18T00:28:39;4.93;;;4.50;;
44985;SDS011;30721;49.380;7.736;2022-08-18T00:31:05;5.13;;;4.72;;
44985;SDS011;30721;49.380;7.736;2022-08-18T00:33:30;5.60;;;5.05;;
44985;SDS011;30721;49.380;7.736;2022-08-18T00:35:56;5.10;;;4.65;;
44985;SDS011;30721;49.380;7.736;2022-08-18T00:38:21;4.75;;;4.35;;
44985;SDS011;30721;49.380;7.736;2022-08-18T00:40:48;6.65;;;5.18;;
44985;SDS011;30721;49.380;7.736;2022-08-18T00:43:30;5.30;;;4.88;;
44985;SDS011;30721;49.380;7.736;2022-08-18T00:45:59;5.50;;;5.00;;
44985;SDS011;30721;49.380;7.736;2022-08-18T00:48:24;5.40;;;4.88;;
44985;SDS011;30721;49.380;7.736;2022-08-18T00:50:51;5.28;;;4.88;;
44985;SDS011;30721;49.380;7.736;2022-08-18T00:53:21;5.53;;;5.03;;
44985;SDS011;30721;49.380;7.736;2022-08-18T00:56:30;4.85;;;4.45;;
44985;SDS011;30721;49.380;7.736;2022-08-18T01:01:26;4.97;;;4.47;;
44985;SDS011;30721;49.380;7.736;2022-08-18T01:03:55;6.45;;;4.90;;
44985;SDS011;30721;49.380;7.736;2022-08-18T01:06:27;4.95;;;4.55;;
44985;SDS011;30721;49.380;7.736;2022-08-18T01:08:56;4.80;;;4.40;;
44985;SDS011;30721;49.380;7.736;2022-08-18T01:11:22;5.30;;;4.90;;
44985;SDS011;30721;49.380;7.736;2022-08-18T01:13:47;5.63;;;5.13;;
44985;SDS011;30721;49.380;7.736;2022-08-18T01:16:13;5.53;;;5.03;;
44985;SDS011;30721;49.380;7.736;2022-08-18T01:18:57;5.43;;;4.93;;
44985;SDS011;30721;49.380;7.736;2022-08-18T01:21:48;5.80;;;5.30;;
44985;SDS011;30721;49.380;7.736;2022-08-18T01:24:16;4.82;;;4.43;;
44985;SDS011;30721;49.380;7.736;2022-08-18T01:26:42;5.85;;;5.25;;
44985;SDS011;30721;49.380;7.736;2022-08-18T01:29:13;5.68;;;5.18;;
44985;SDS011;30721;49.380;7.736;2022-08-18T01:31:41;5.00;;;4.57;;
44985;SDS011;30721;49.380;7.736;2022-08-18T01:34:18;5.22;;;4.82;;
44985;SDS011;30721;49.380;7.736;2022-08-18T01:36:46;5.63;;;5.13;;
44985;SDS011;30721;49.380;7.736;2022-08-18T01:39:16;6.40;;;5.40;;
44985;SDS011;30721;49.380;7.736;2022-08-18T01:41:43;5.78;;;5.18;;
44985;SDS011;30721;49.380;7.736;2022-08-18T01:44:08;6.70;;;5.38;;
44985;SDS011;30721;49.380;7.736;2022-08-18T01:46:36;6.03;;;5.43;;
44985;SDS011;30721;49.380;7.736;2022-08-18T01:49:03;5.72;;;5.15;;
44985;SDS011;30721;49.380;7.736;2022-08-18T01:51:29;6.68;;;6.05;;
44985;SDS011;30721;49.380;7.736;2022-08-18T01:53:56;6.60;;;5.45;;
44985;SDS011;30721;49.380;7.736;2022-08-18T01:56:22;6.13;;;5.47;;
44985;SDS011;30721;49.380;7.736;2022-08-18T01:58:47;6.07;;;5.57;;
44985;SDS011;30721;49.380;7.736;2022-08-18T02:01:13;5.97;;;5.47;;
44985;SDS011;30721;49.380;7.736;2022-08-18T02:03:40;5.78;;;5.28;;
44985;SDS011;30721;49.380;7.736;2022-08-18T02:06:09;6.32;;;4.93;;
44985;SDS011;30721;49.380;7.736;2022-08-18T02:08:36;5.45;;;5.05;;
44985;SDS011;30721;49.380;7.736;2022-08-18T02:11:03;5.75;;;5.25;;
44985;SDS011;30721;49.380;7.736;2022-08-18T02:13:29;6.75;;;5.40;;
44985;SDS011;30721;49.380;7.736;2022-08-18T02:15:54;7.03;;;5.53;;
44985;SDS011;30721;49.380;7.736;2022-08-18T02:18:21;6.18;;;5.68;;
44985;SDS011;30721;49.380;7.736;2022-08-18T02:20:48;6.28;;;5.68;;
44985;SDS011;30721;49.380;7.736;2022-08-18T02:23:14;6.28;;;5.45;;
44985;SDS011;30721;49.380;7.736;2022-08-18T02:25:41;6.93;;;5.50;;
44985;SDS011;30721;49.380;7.736;2022-08-18T02:28:06;7.03;;;6.32;;
44985;SDS011;30721;49.380;7.736;2022-08-18T02:30:32;6.05;;;5.40;;
44985;SDS011;30721;49.380;7.736;2022-08-18T02:32:59;7.00;;;6.20;;
44985;SDS011;30721;49.380;7.736;2022-08-18T02:35:25;8.93;;;5.70;;
44985;SDS011;30721;49.380;7.736;2022-08-18T02:37:51;6.38;;;5.82;;
44985;SDS011;30721;49.380;7.736;2022-08-18T02:40:16;6.38;;;5.70;;
44985;SDS011;30721;49.380;7.736;2022-08-18T02:42:43;7.70;;;6.25;;
44985;SDS011;30721;49.380;7.736;2022-08-18T02:45:10;6.85;;;5.82;;
44985;SDS011;30721;49.380;7.736;2022-08-18T02:47:36;6.38;;;5.80;;
44985;SDS011;30721;49.380;7.736;2022-08-18T02:50:03;6.25;;;5.65;;
44985;SDS011;30721;49.380;7.736;2022-08-18T02:52:29;6.40;;;5.68;;
44985;SDS011;30721;49.380;7.736;2022-08-18T02:54:57;6.65;;;6.05;;
44985;SDS011;30721;49.380;7.736;2022-08-18T02:57:25;6.28;;;5.50;;
44985;SDS011;30721;49.380;7.736;2022-08-18T02:59:50;7.03;;;6.32;;
44985;SDS011;30721;49.380;7.736;2022-08-18T03:02:16;6.43;;;5.82;;
44985;SDS011;30721;49.380;7.736;2022-08-18T03:04:41;6.18;;;5.57;;
44985;SDS011;30721;49.380;7.736;2022-08-18T03:07:07;6.90;;;6.40;;
44985;SDS011;30721;49.380;7.736;2022-08-18T03:09:33;6.10;;;5.57;;
44985;SDS011;30721;49.380;7.736;2022-08-18T03:11:59;6.22;;;5.72;;
44985;SDS011;30721;49.380;7.736;2022-08-18T03:14:25;6.38;;;5.78;;
44985;SDS011;30721;49.380;7.736;2022-08-18T03:16:50;8.10;;;6.35;;
44985;SDS011;30721;49.380;7.736;2022-08-18T03:19:16;7.20;;;6.30;;
44985;SDS011;30721;49.380;7.736;2022-08-18T03:21:43;6.68;;;6.07;;
44985;SDS011;30721;49.380;7.736;2022-08-18T03:24:10;7.03;;;6.43;;
44985;SDS011;30721;49.380;7.736;2022-08-18T03:26:39;9.60;;;7.47;;
44985;SDS011;30721;49.380;7.736;2022-08-18T03:29:10;7.80;;;7.10;;
44985;SDS011;30721;49.380;7.736;2022-08-18T03:31:36;7.72;;;6.95;;
44985;SDS011;30721;49.380;7.736;2022-08-18T03:34:04;6.50;;;5.82;;
44985;SDS011;30721;49.380;7.736;2022-08-18T03:36:31;7.20;;;6.50;;
44985;SDS011;30721;49.380;7.736;2022-08-18T03:38:58;8.20;;;6.43;;
44985;SDS011;30721;49.380;7.736;2022-08-18T03:41:26;7.45;;;6.65;;
44985;SDS011;30721;49.380;7.736;2022-08-18T03:43:53;7.63;;;6.53;;
44985;SDS011;30721;49.380;7.736;2022-08-18T03:46:19;8.93;;;6.82;;
44985;SDS011;30721;49.380;7.736;2022-08-18T03:48:46;8.00;;;6.57;;
44985;SDS011;30721;49.380;7.736;2022-08-18T03:51:14;7.22;;;6.53;;
44985;SDS011;30721;49.380;7.736;2022-08-18T03:53:42;7.28;;;6.63;;
44985;SDS011;30721;49.380;7.736;2022-08-18T03:56:09;7.38;;;6.60;;
44985;SDS011;30721;49.380;7.736;2022-08-18T03:58:40;6.63;;;6.03;;
44985;SDS011;30721;49.380;7.736;2022-08-18T04:01:09;7.55;;;6.35;;
44985;SDS011;30721;49.380;7.736;2022-08-18T04:03:34;7.40;;;6.80;;
44985;SDS011;30721;49.380;7.736;2022-08-18T04:06:00;9.20;;;7.32;;
44985;SDS011;30721;49.380;7.736;2022-08-18T04:08:26;7.90;;;7.10;;
44985;SDS011;30721;49.380;7.736;2022-08-18T04:10:51;8.30;;;7.60;;
44985;SDS011;30721;49.380;7.736;2022-08-18T04:13:16;8.35;;;7.55;;
44985;SDS011;30721;49.380;7.736;2022-08-18T04:15:42;8.35;;;7.05;;
44985;SDS011;30721;49.380;7.736;2022-08-18T04:18:07;8.80;;;7.68;;
44985;SDS011;30721;49.380;7.736;2022-08-18T04:20:33;8.55;;;7.60;;
44985;SDS011;30721;49.380;7.736;2022-08-18T04:22:59;8.23;;;7.43;;
44985;SDS011;30721;49.380;7.736;2022-08-18T04:25:25;8.40;;;7.57;;
44985;SDS011;30721;49.380;7.736;2022-08-18T04:27:52;8.13;;;7.32;;
44985;SDS011;30721;49.380;7.736;2022-08-18T04:30:24;8.63;;;7.53;;
44985;SDS011;30721;49.380;7.736;2022-08-18T04:32:49;8.40;;;7.47;;
44985;SDS011;30721;49.380;7.736;2022-08-18T04:35:15;10.18;;;7.43;;
44985;SDS011;30721;49.380;7.736;2022-08-18T04:37:41;8.90;;;7.53;;
44985;SDS011;30721;49.380;7.736;2022-08-18T04:40:08;7.88;;;7.07;;
44985;SDS011;30721;49.380;7.736;2022-08-18T04:42:34;7.75;;;7.05;;
44985;SDS011;30721;49.380;7.736;2022-08-18T04:45:00;7.45;;;6.75;;
44985;SDS011;30721;49.380;7.736;2022-08-18T04:47:25;7.90;;;7.10;;
44985;SDS011;30721;49.380;7.736;2022-08-18T04:49:51;7.57;;;6.82;;
44985;SDS011;30721;49.380;7.736;2022-08-18T04:52:16;7.72;;;7.03;;
44985;SDS011;30721;49.380;7.736;2022-08-18T04:55:00;8.57;;;7.88;;
44985;SDS011;30721;49.380;7.736;2022-08-18T04:57:26;8.57;;;7.70;;
44985;SDS011;30721;49.380;7.736;2022-08-18T04:59:53;8.13;;;7.18;;
44985;SDS011;30721;49.380;7.736;2022-08-18T05:02:19;8.18;;;7.30;;
44985;SDS011;30721;49.380;7.736;2022-08-18T05:04:45;7.60;;;6.90;;
44985;SDS011;30721;49.380;7.736;2022-08-18T05:07:16;7.53;;;6.82;;
44985;SDS011;30721;49.380;7.736;2022-08-18T05:09:43;7.75;;;7.05;;
44985;SDS011;30721;49.380;7.736;2022-08-18T05:12:09;7.25;;;6.65;;
44985;SDS011;30721;49.380;7.736;2022-08-18T05:14:37;7.85;;;6.93;;
44985;SDS011;30721;49.380;7.736;2022-08-18T05:17:03;8.32;;;7.35;;
44985;SDS011;30721;49.380;7.736;2022-08-18T05:19:29;8.20;;;7.28;;
44985;SDS011;30721;49.380;7.736;2022-08-18T05:21:56;8.18;;;7.38;;
44985;SDS011;30721;49.380;7.736;2022-08-18T05:24:23;7.68;;;6.97;;
44985;SDS011;30721;49.380;7.736;2022-08-18T05:26:49;8.88;;;7.97;;
44985;SDS011;30721;49.380;7.736;2022-08-18T05:29:15;8.55;;;7.47;;
44985;SDS011;30721;49.380;7.736;2022-08-18T05:31:41;8.88;;;7.72;;
44985;SDS011;30721;49.380;7.736;2022-08-18T05:34:07;8.65;;;7.50;;
44985;SDS011;30721;49.380;7.736;2022-08-18T05:41:49;9.35;;;8.32;;
44985;SDS011;30721;49.380;7.736;2022-08-18T05:44:19;9.85;;;8.85;;
44985;SDS011;30721;49.380;7.736;2022-08-18T05:47:30;9.80;;;8.85;;
44985;SDS011;30721;49.380;7.736;2022-08-18T05:49:43;9.57;;;8.68;;
44985;SDS011;30721;49.380;7.736;2022-08-18T05:52:20;10.60;;;9.02;;
44985;SDS011;30721;49.380;7.736;2022-08-18T06:00:54;10.43;;;9.38;;
44985;SDS011;30721;49.380;7.736;2022-08-18T06:06:09;11.95;;;10.70;;
44985;SDS011;30721;49.380;7.736;2022-08-18T06:08:39;10.27;;;9.13;;
44985;SDS011;30721;49.380;7.736;2022-08-18T06:11:09;12.15;;;10.02;;
44985;SDS011;30721;49.380;7.736;2022-08-18T06:13:36;12.10;;;10.90;;
44985;SDS011;30721;49.380;7.736;2022-08-18T06:16:08;10.65;;;9.65;;
44985;SDS011;30721;49.380;7.736;2022-08-18T06:18:59;10.88;;;9.80;;
44985;SDS011;30721;49.380;7.736;2022-08-18T06:26:54;13.27;;;11.70;;
44985;SDS011;30721;49.380;7.736;2022-08-18T06:29:32;16.25;;;12.23;;
44985;SDS011;30721;49.380;7.736;2022-08-18T06:37:35;17.40;;;14.40;;
44985;SDS011;30721;49.380;7.736;2022-08-18T06:40:31;14.50;;;13.10;;
44985;SDS011;30721;49.380;7.736;2022-08-18T06:42:56;15.73;;;13.85;;
44985;SDS011;30721;49.380;7.736;2022-08-18T06:45:25;15.23;;;13.63;;
44985;SDS011;30721;49.380;7.736;2022-08-18T06:47:58;14.60;;;13.18;;
44985;SDS011;30721;49.380;7.736;2022-08-18T06:50:33;14.60;;;13.18;;
44985;SDS011;30721;49.380;7.736;2022-08-18T06:53:22;16.05;;;14.35;;
44985;SDS011;30721;49.380;7.736;2022-08-18T06:58:48;16.88;;;14.93;;
44985;SDS011;30721;49.380;7.736;2022-08-18T07:01:14;17.15;;;14.52;;
44985;SDS011;30721;49.380;7.736;2022-08-18T07:03:42;14.45;;;12.95;;
44985;SDS011;30721;49.380;7.736;2022-08-18T07:08:48;17.00;;;15.00;;
44985;SDS011;30721;49.380;7.736;2022-08-18T07:13:58;17.55;;;15.75;;
44985;SDS011;30721;49.380;7.736;2022-08-18T07:16:36;16.55;;;14.07;;
44985;SDS011;30721;49.380;7.736;2022-08-18T07:19:08;17.27;;;15.48;;
44985;SDS011;30721;49.380;7.736;2022-08-18T07:21:35;17.60;;;15.75;;
44985;SDS011;30721;49.380;7.736;2022-08-18T07:24:06;18.33;;;15.95;;
44985;SDS011;30721;49.380;7.736;2022-08-18T07:29:32;17.90;;;16.05;;
44985;SDS011;30721;49.380;7.736;2022-08-18T07:32:02;16.92;;;15.18;;
44985;SDS011;30721;49.380;7.736;2022-08-18T07:34:39;17.80;;;15.98;;
44985;SDS011;30721;49.380;7.736;2022-08-18T07:37:50;18.55;;;16.15;;
44985;SDS011;30721;49.380;7.736;2022-08-18T07:40:23;18.88;;;16.85;;
44985;SDS011;30721;49.380;7.736;2022-08-18T07:42:58;19.15;;;17.13;;
44985;SDS011;30721;49.380;7.736;2022-08-18T07:45:35;18.77;;;16.63;;
44985;SDS011;30721;49.380;7.736;2022-08-18T07:55:53;22.50;;;18.90;;
44985;SDS011;30721;49.380;7.736;2022-08-18T08:04:02;21.83;;;19.35;;
44985;SDS011;30721;49.380;7.736;2022-08-18T08:15:54;23.17;;;19.73;;
44985;SDS011;30721;49.380;7.736;2022-08-18T08:29:15;26.67;;;21.98;;
44985;SDS011;30721;49.380;7.736;2022-08-18T08:31:51;24.42;;;20.60;;
44985;SDS011;30721;49.380;7.736;2022-08-18T08:37:12;22.17;;;19.10;;
44985;SDS011;30721;49.380;7.736;2022-08-18T08:44:51;22.88;;;19.83;;
44985;SDS011;30721;49.380;7.736;2022-08-18T08:50:26;23.10;;;19.38;;
44985;SDS011;30721;49.380;7.736;2022-08-18T08:55:34;23.90;;;19.75;;
44985;SDS011;30721;49.380;7.736;2022-08-18T08:58:45;22.35;;;19.45;;
44985;SDS011;30721;49.380;7.736;2022-08-18T09:00:53;20.00;;;17.65;;
44985;SDS011;30721;49.380;7.736;2022-08-18T09:14:38;23.65;;;21.08;;
44985;SDS011;30721;49.380;7.736;2022-08-18T09:22:43;21.58;;;19.25;;
44985;SDS011;30721;49.380;7.736;2022-08-18T09:25:33;22.15;;;19.85;;
44985;SDS011;30721;49.380;7.736;2022-08-18T09:35:56;21.38;;;19.17;;
44985;SDS011;30721;49.380;7.736;2022-08-18T09:38:33;19.70;;;17.60;;
44985;SDS011;30721;49.380;7.736;2022-08-18T09:41:20;20.13;;;16.85;;
44985;SDS011;30721;49.380;7.736;2022-08-18T09:49:53;19.77;;;17.77;;
44985;SDS011;30721;49.380;7.736;2022-08-18T09:51:54;21.30;;;18.95;;
44985;SDS011;30721;49.380;7.736;2022-08-18T09:54:31;19.90;;;17.88;;
44985;SDS011;30721;49.380;7.736;2022-08-18T09:57:05;22.33;;;19.70;;
44985;SDS011;30721;49.380;7.736;2022-08-18T10:16:12;24.88;;;21.60;;
44985;SDS011;30721;49.380;7.736;2022-08-18T10:18:50;24.88;;;20.30;;
44985;SDS011;30721;49.380;7.736;2022-08-18T10:21:22;21.88;;;19.58;;
44985;SDS011;30721;49.380;7.736;2022-08-18T10:24:11;26.23;;;22.63;;
44985;SDS011;30721;49.380;7.736;2022-08-18T10:29:08;24.85;;;21.08;;
44985;SDS011;30721;49.380;7.736;2022-08-18T10:39:50;26.55;;;22.30;;
44985;SDS011;30721;49.380;7.736;2022-08-18T10:42:30;30.58;;;23.55;;
44985;SDS011;30721;49.380;7.736;2022-08-18T10:48:36;24.80;;;21.55;;
44985;SDS011;30721;49.380;7.736;2022-08-18T10:50:48;27.23;;;22.85;;
44985;SDS011;30721;49.380;7.736;2022-08-18T10:53:22;25.60;;;21.52;;
44985;SDS011;30721;49.380;7.736;2022-08-18T10:56:03;20.20;;;18.08;;
44985;SDS011;30721;49.380;7.736;2022-08-18T10:58:42;20.67;;;17.80;;
44985;SDS011;30721;49.380;7.736;2022-08-18T11:06:50;26.30;;;22.48;;
44985;SDS011;30721;49.380;7.736;2022-08-18T11:09:24;24.15;;;20.05;;
44985;SDS011;30721;49.380;7.736;2022-08-18T11:11:53;20.90;;;18.67;;
44985;SDS011;30721;49.380;7.736;2022-08-18T11:17:24;21.45;;;19.23;;
44985;SDS011;30721;49.380;7.736;2022-08-18T11:19:53;24.42;;;20.67;;
44985;SDS011;30721;49.380;7.736;2022-08-18T11:22:23;22.10;;;19.17;;
44985;SDS011;30721;49.380;7.736;2022-08-18T11:24:50;22.50;;;19.55;;
44985;SDS011;30721;49.380;7.736;2022-08-18T11:27:38;23.67;;;20.70;;
44985;SDS011;30721;49.380;7.736;2022-08-18T11:30:03;25.60;;;22.10;;
44985;SDS011;30721;49.380;7.736;2022-08-18T11:32:31;26.83;;;21.17;;
44985;SDS011;30721;49.380;7.736;2022-08-18T11:39:52;27.35;;;22.27;;
44985;SDS011;30721;49.380;7.736;2022-08-18T11:42:26;27.98;;;23.33;;
44985;SDS011;30721;49.380;7.736;2022-08-18T11:45:04;24.27;;;21.70;;
44985;SDS011;30721;49.380;7.736;2022-08-18T11:47:31;24.50;;;21.52;;
44985;SDS011;30721;49.380;7.736;2022-08-18T11:50:08;25.35;;;21.80;;
44985;SDS011;30721;49.380;7.736;2022-08-18T11:52:46;24.67;;;21.48;;
44985;SDS011;30721;49.380;7.736;2022-08-18T11:55:26;22.00;;;19.38;;
44985;SDS011;30721;49.380;7.736;2022-08-18T11:57:55;24.92;;;21.33;;
44985;SDS011;30721;49.380;7.736;2022-08-18T12:03:11;24.87;;;21.57;;
44985;SDS011;30721;49.380;7.736;2022-08-18T12:05:50;27.85;;;24.75;;
44985;SDS011;30721;49.380;7.736;2022-08-18T12:11:01;26.83;;;22.50;;
44985;SDS011;30721;49.380;7.736;2022-08-18T12:13:37;30.95;;;24.98;;
44985;SDS011;30721;49.380;7.736;2022-08-18T12:16:07;25.90;;;22.58;;
44985;SDS011;30721;49.380;7.736;2022-08-18T12:18:40;29.58;;;25.88;;
44985;SDS011;30721;49.380;7.736;2022-08-18T12:21:06;27.00;;;22.73;;
44985;SDS011;30721;49.380;7.736;2022-08-18T12:23:33;28.13;;;24.20;;
44985;SDS011;30721;49.380;7.736;2022-08-18T12:26:00;30.17;;;25.38;;
44985;SDS011;30721;49.380;7.736;2022-08-18T12:28:26;27.30;;;24.27;;
44985;SDS011;30721;49.380;7.736;2022-08-18T12:30:52;29.58;;;26.30;;
44985;SDS011;30721;49.380;7.736;2022-08-18T12:33:18;29.02;;;24.80;;
44985;SDS011;30721;49.380;7.736;2022-08-18T12:35:43;28.20;;;25.10;;
44985;SDS011;30721;49.380;7.736;2022-08-18T12:38:09;31.63;;;26.52;;
44985;SDS011;30721;49.380;7.736;2022-08-18T12:40:35;28.77;;;25.20;;
44985;SDS011;30721;49.380;7.736;2022-08-18T12:43:01;31.02;;;26.38;;
44985;SDS011;30721;49.380;7.736;2022-08-18T12:45:27;35.40;;;26.25;;
44985;SDS011;30721;49.380;7.736;2022-08-18T12:47:54;28.92;;;25.50;;
44985;SDS011;30721;49.380;7.736;2022-08-18T12:50:20;29.60;;;25.50;;
44985;SDS011;30721;49.380;7.736;2022-08-18T12:52:45;30.85;;;26.77;;
44985;SDS011;30721;49.380;7.736;2022-08-18T12:55:11;31.42;;;26.23;;
44985;SDS011;30721;49.380;7.736;2022-08-18T12:57:36;29.17;;;26.00;;
44985;SDS011;30721;49.380;7.736;2022-08-18T13:00:02;26.75;;;22.20;;
44985;SDS011;30721;49.380;7.736;2022-08-18T13:02:28;25.73;;;22.92;;
44985;SDS011;30721;49.380;7.736;2022-08-18T13:04:54;21.90;;;19.63;;
44985;SDS011;30721;49.380;7.736;2022-08-18T13:07:19;21.20;;;19.10;;
44985;SDS011;30721;49.380;7.736;2022-08-18T13:09:45;22.60;;;20.33;;
44985;SDS011;30721;49.380;7.736;2022-08-18T13:12:10;21.15;;;18.80;;
44985;SDS011;30721;49.380;7.736;2022-08-18T13:14:36;21.80;;;19.40;;
44985;SDS011;30721;49.380;7.736;2022-08-18T13:17:02;20.02;;;17.92;;
44985;SDS011;30721;49.380;7.736;2022-08-18T13:19:27;21.20;;;19.02;;
44985;SDS011;30721;49.380;7.736;2022-08-18T13:21:53;21.38;;;19.17;;
44985;SDS011;30721;49.380;7.736;2022-08-18T13:24:18;17.98;;;16.08;;
44985;SDS011;30721;49.380;7.736;2022-08-18T13:26:45;19.88;;;17.88;;
44985;SDS011;30721;49.380;7.736;2022-08-18T13:29:11;20.98;;;18.88;;
44985;SDS011;30721;49.380;7.736;2022-08-18T13:31:38;19.95;;;17.85;;
44985;SDS011;30721;49.380;7.736;2022-08-18T13:34:03;21.15;;;19.05;;
44985;SDS011;30721;49.380;7.736;2022-08-18T13:36:31;20.65;;;18.58;;
44985;SDS011;30721;49.380;7.736;2022-08-18T13:39:15;21.45;;;18.90;;
44985;SDS011;30721;49.380;7.736;2022-08-18T13:41:43;17.45;;;15.73;;
44985;SDS011;30721;49.380;7.736;2022-08-18T13:44:09;18.50;;;16.63;;
44985;SDS011;30721;49.380;7.736;2022-08-18T13:46:37;18.70;;;16.98;;
44985;SDS011;30721;49.380;7.736;2022-08-18T13:49:09;20.02;;;17.98;;
44985;SDS011;30721;49.380;7.736;2022-08-18T13:51:35;20.50;;;18.38;;
44985;SDS011;30721;49.380;7.736;2022-08-18T13:54:01;18.33;;;16.52;;
44985;SDS011;30721;49.380;7.736;2022-08-18T13:56:26;17.55;;;15.70;;
44985;SDS011;30721;49.380;7.736;2022-08-18T13:58:51;20.27;;;18.30;;
44985;SDS011;30721;49.380;7.736;2022-08-18T14:01:17;19.33;;;17.42;;
44985;SDS011;30721;49.380;7.736;2022-08-18T14:03:43;20.55;;;18.40;;
44985;SDS011;30721;49.380;7.736;2022-08-18T14:06:09;21.52;;;19.33;;
44985;SDS011;30721;49.380;7.736;2022-08-18T14:08:35;19.20;;;17.35;;
44985;SDS011;30721;49.380;7.736;2022-08-18T14:11:00;21.67;;;19.48;;
44985;SDS011;30721;49.380;7.736;2022-08-18T14:13:27;20.05;;;17.95;;
44985;SDS011;30721;49.380;7.736;2022-08-18T14:15:54;19.98;;;17.88;;
44985;SDS011;30721;49.380;7.736;2022-08-18T14:18:23;19.83;;;17.92;;
44985;SDS011;30721;49.380;7.736;2022-08-18T14:20:50;17.48;;;15.65;;
44985;SDS011;30721;49.380;7.736;2022-08-18T14:23:34;20.25;;;18.15;;
44985;SDS011;30721;49.380;7.736;2022-08-18T14:26:18;19.15;;;17.25;;
44985;SDS011;30721;49.380;7.736;2022-08-18T14:29:02;20.67;;;18.77;;
44985;SDS011;30721;49.380;7.736;2022-08-18T14:31:28;19.08;;;17.23;;
44985;SDS011;30721;49.380;7.736;2022-08-18T14:33:54;19.85;;;17.98;;
44985;SDS011;30721;49.380;7.736;2022-08-18T14:36:19;22.10;;;19.80;;
44985;SDS011;30721;49.380;7.736;2022-08-18T14:38:45;20.42;;;18.23;;
44985;SDS011;30721;49.380;7.736;2022-08-18T14:41:11;18.92;;;17.05;;
44985;SDS011;30721;49.380;7.736;2022-08-18T14:43:37;19.45;;;17.55;;
44985;SDS011;30721;49.380;7.736;2022-08-18T14:46:03;21.88;;;19.70;;
44985;SDS011;30721;49.380;7.736;2022-08-18T14:48:29;20.35;;;17.83;;
44985;SDS011;30721;49.380;7.736;2022-08-18T14:50:55;15.88;;;14.35;;
44985;SDS011;30721;49.380;7.736;2022-08-18T14:53:24;19.05;;;17.15;;
44985;SDS011;30721;49.380;7.736;2022-08-18T14:55:51;16.95;;;15.25;;
44985;SDS011;30721;49.380;7.736;2022-08-18T14:58:21;16.85;;;15.25;;
44985;SDS011;30721;49.380;7.736;2022-08-18T15:00:57;20.25;;;18.35;;
44985;SDS011;30721;49.380;7.736;2022-08-18T15:03:24;18.50;;;16.60;;
44985;SDS011;30721;49.380;7.736;2022-08-18T15:05:52;19.13;;;17.27;;
44985;SDS011;30721;49.380;7.736;2022-08-18T15:08:18;19.13;;;17.33;;
44985;SDS011;30721;49.380;7.736;2022-08-18T15:10:44;17.95;;;15.02;;
44985;SDS011;30721;49.380;7.736;2022-08-18T15:13:11;18.45;;;16.75;;
44985;SDS011;30721;49.380;7.736;2022-08-18T15:15:36;16.23;;;14.73;;
44985;SDS011;30721;49.380;7.736;2022-08-18T15:18:02;17.08;;;15.45;;
44985;SDS011;30721;49.380;7.736;2022-08-18T15:20:28;17.42;;;15.82;;
44985;SDS011;30721;49.380;7.736;2022-08-18T15:22:54;18.45;;;16.65;;
44985;SDS011;30721;49.380;7.736;2022-08-18T15:25:46;15.98;;;14.60;;
44985;SDS011;30721;49.380;7.736;2022-08-18T15:28:16;15.13;;;13.75;;
44985;SDS011;30721;49.380;7.736;2022-08-18T15:30:46;15.95;;;14.48;;
44985;SDS011;30721;49.380;7.736;2022-08-18T15:33:13;17.25;;;15.65;;
44985;SDS011;30721;49.380;7.736;2022-08-18T15:35:43;17.15;;;15.55;;
44985;SDS011;30721;49.380;7.736;2022-08-18T15:38:09;17.00;;;15.23;;
44985;SDS011;30721;49.380;7.736;2022-08-18T15:40:38;15.85;;;14.43;;
44985;SDS011;30721;49.380;7.736;2022-08-18T15:43:12;14.30;;;13.00;;
44985;SDS011;30721;49.380;7.736;2022-08-18T15:45:39;16.38;;;14.90;;
44985;SDS011;30721;49.380;7.736;2022-08-18T15:48:07;15.93;;;14.32;;
44985;SDS011;30721;49.380;7.736;2022-08-18T15:50:33;15.77;;;14.15;;
44985;SDS011;30721;49.380;7.736;2022-08-18T15:53:00;15.18;;;13.80;;
44985;SDS011;30721;49.380;7.736;2022-08-18T15:55:31;16.33;;;14.93;;
44985;SDS011;30721;49.380;7.736;2022-08-18T15:57:58;15.48;;;14.07;;
44985;SDS011;30721;49.380;7.736;2022-08-18T16:00:26;15.45;;;14.07;;
44985;SDS011;30721;49.380;7.736;2022-08-18T16:02:54;17.45;;;15.85;;
44985;SDS011;30721;49.380;7.736;2022-08-18T16:05:21;14.40;;;13.10;;
44985;SDS011;30721;49.380;7.736;2022-08-18T16:07:49;16.95;;;15.35;;
44985;SDS011;30721;49.380;7.736;2022-08-18T16:10:16;15.73;;;14.32;;
44985;SDS011;30721;49.380;7.736;2022-08-18T16:12:43;16.00;;;14.60;;
44985;SDS011;30721;49.380;7.736;2022-08-18T16:15:09;16.42;;;15.02;;
44985;SDS011;30721;49.380;7.736;2022-08-18T16:17:35;15.35;;;13.95;;
44985;SDS011;30721;49.380;7.736;2022-08-18T16:20:01;15.55;;;14.13;;
44985;SDS011;30721;49.380;7.736;2022-08-18T16:22:26;15.02;;;13.63;;
44985;SDS011;30721;49.380;7.736;2022-08-18T16:24:52;15.82;;;14.43;;
44985;SDS011;30721;49.380;7.736;2022-08-18T16:27:18;14.75;;;13.45;;
44985;SDS011;30721;49.380;7.736;2022-08-18T16:29:43;14.15;;;12.88;;
44985;SDS011;30721;49.380;7.736;2022-08-18T16:32:08;14.02;;;12.82;;
44985;SDS011;30721;49.380;7.736;2022-08-18T16:34:34;12.38;;;11.32;;
44985;SDS011;30721;49.380;7.736;2022-08-18T16:36:59;13.98;;;12.77;;
44985;SDS011;30721;49.380;7.736;2022-08-18T16:39:25;12.40;;;11.30;;
44985;SDS011;30721;49.380;7.736;2022-08-18T16:41:50;13.30;;;12.10;;
44985;SDS011;30721;49.380;7.736;2022-08-18T16:44:16;12.85;;;11.85;;
44985;SDS011;30721;49.380;7.736;2022-08-18T16:46:41;13.57;;;12.25;;
44985;SDS011;30721;49.380;7.736;2022-08-18T16:49:07;13.02;;;11.73;;
44985;SDS011;30721;49.380;7.736;2022-08-18T16:51:33;12.65;;;11.60;;
44985;SDS011;30721;49.380;7.736;2022-08-18T16:53:59;11.95;;;10.95;;
44985;SDS011;30721;49.380;7.736;2022-08-18T16:56:26;12.57;;;11.55;;
44985;SDS011;30721;49.380;7.736;2022-08-18T16:58:53;13.40;;;12.18;;
44985;SDS011;30721;49.380;7.736;2022-08-18T17:01:37;12.68;;;11.57;;
44985;SDS011;30721;49.380;7.736;2022-08-18T17:04:23;13.50;;;12.30;;
44985;SDS011;30721;49.380;7.736;2022-08-18T17:06:53;14.13;;;12.80;;
44985;SDS011;30721;49.380;7.736;2022-08-18T17:09:19;13.02;;;11.82;;
44985;SDS011;30721;49.380;7.736;2022-08-18T17:11:45;13.57;;;12.27;;
44985;SDS011;30721;49.380;7.736;2022-08-18T17:14:11;12.82;;;11.73;;
44985;SDS011;30721;49.380;7.736;2022-08-18T17:16:36;13.85;;;12.65;;
44985;SDS011;30721;49.380;7.736;2022-08-18T17:19:03;13.40;;;12.30;;
44985;SDS011;30721;49.380;7.736;2022-08-18T17:21:30;12.73;;;11.63;;
44985;SDS011;30721;49.380;7.736;2022-08-18T17:23:57;13.10;;;11.85;;
44985;SDS011;30721;49.380;7.736;2022-08-18T17:31:59;14.13;;;12.82;;
44985;SDS011;30721;49.380;7.736;2022-08-18T17:34:32;16.33;;;14.88;;